sensor_id;sensor_type;location;lat;lon;timestamp;P1;durP1;ratioP1;P2;durP2;ratioP2
37409;SDS011;23275;48.914;12.566;2023-06-10T00:01:23;6.40;;;4.97;;
37409;SDS011;23275;48.914;12.566;2023-06-10T00:03:50;7.70;;;4.75;;
37409;SDS011;23275;48.914;12.566;2023-06-10T00:06:16;7.07;;;4.88;;
37409;SDS011;23275;48.914;12.566;2023-06-10T00:08:42;5.53;;;4.35;;
37409;SDS011;23275;48.914;12.566;2023-06-10T00:11:08;6.63;;;3.88;;
37409;SDS011;23275;48.914;12.566;2023-06-10T00:13:33;6.10;;;4.45;;
37409;SDS011;23275;48.914;12.566;2023-06-10T00:15:59;5.90;;;4.15;;
37409;SDS011;23275;48.914;12.566;2023-06-10T00:18:25;8.25;;;5.20;;
37409;SDS011;23275;48.914;12.566;2023-06-10T00:20:51;6.50;;;5.05;;
37409;SDS011;23275;48.914;12.566;2023-06-10T00:23:20;7.15;;;4.80;;
37409;SDS011;23275;48.914;12.566;2023-06-10T00:25:46;7.25;;;4.85;;
37409;SDS011;23275;48.914;12.566;2023-06-10T00:28:11;6.50;;;4.57;;
37409;SDS011;23275;48.914;12.566;2023-06-10T00:30:38;7.55;;;5.25;;
37409;SDS011;23275;48.914;12.566;2023-06-10T00:33:04;5.22;;;4.53;;
37409;SDS011;23275;48.914;12.566;2023-06-10T00:35:29;6.50;;;4.95;;
37409;SDS011;23275;48.914;12.566;2023-06-10T00:37:55;8.88;;;5.80;;
37409;SDS011;23275;48.914;12.566;2023-06-10T00:40:20;8.32;;;5.78;;
37409;SDS011;23275;48.914;12.566;2023-06-10T00:42:46;7.57;;;5.00;;
37409;SDS011;23275;48.914;12.566;2023-06-10T00:45:11;7.05;;;4.93;;
37409;SDS011;23275;48.914;12.566;2023-06-10T00:47:37;7.60;;;5.60;;
37409;SDS011;23275;48.914;12.566;2023-06-10T00:50:04;6.68;;;5.13;;
37409;SDS011;23275;48.914;12.566;2023-06-10T00:52:30;7.45;;;4.55;;
37409;SDS011;23275;48.914;12.566;2023-06-10T00:54:56;5.95;;;4.80;;
37409;SDS011;23275;48.914;12.566;2023-06-10T00:57:23;6.18;;;4.93;;
37409;SDS011;23275;48.914;12.566;2023-06-10T00:59:50;7.55;;;5.22;;
37409;SDS011;23275;48.914;12.566;2023-06-10T01:02:16;7.05;;;5.60;;
37409;SDS011;23275;48.914;12.566;2023-06-10T01:04:41;7.88;;;6.00;;
37409;SDS011;23275;48.914;12.566;2023-06-10T01:12:19;8.45;;;6.28;;
37409;SDS011;23275;48.914;12.566;2023-06-10T01:14:53;7.82;;;6.10;;
37409;SDS011;23275;48.914;12.566;2023-06-10T01:17:20;6.50;;;5.68;;
37409;SDS011;23275;48.914;12.566;2023-06-10T01:19:55;8.13;;;5.53;;
37409;SDS011;23275;48.914;12.566;2023-06-10T01:22:22;8.00;;;6.28;;
37409;SDS011;23275;48.914;12.566;2023-06-10T01:24:49;8.13;;;6.30;;
37409;SDS011;23275;48.914;12.566;2023-06-10T01:27:15;7.40;;;5.82;;
37409;SDS011;23275;48.914;12.566;2023-06-10T01:29:49;7.22;;;6.15;;
37409;SDS011;23275;48.914;12.566;2023-06-10T01:32:26;7.68;;;6.53;;
37409;SDS011;23275;48.914;12.566;2023-06-10T01:34:58;8.20;;;6.50;;
37409;SDS011;23275;48.914;12.566;2023-06-10T01:37:26;8.10;;;6.85;;
37409;SDS011;23275;48.914;12.566;2023-06-10T01:39:52;9.10;;;6.47;;
37409;SDS011;23275;48.914;12.566;2023-06-10T01:42:21;8.68;;;6.13;;
37409;SDS011;23275;48.914;12.566;2023-06-10T01:44:47;8.77;;;6.07;;
37409;SDS011;23275;48.914;12.566;2023-06-10T01:47:12;7.05;;;5.88;;
37409;SDS011;23275;48.914;12.566;2023-06-10T01:49:38;7.80;;;5.97;;
37409;SDS011;23275;48.914;12.566;2023-06-10T01:52:04;8.50;;;6.40;;
37409;SDS011;23275;48.914;12.566;2023-06-10T01:54:30;9.05;;;5.72;;
37409;SDS011;23275;48.914;12.566;2023-06-10T01:56:55;9.38;;;5.75;;
37409;SDS011;23275;48.914;12.566;2023-06-10T01:59:21;7.70;;;6.10;;
37409;SDS011;23275;48.914;12.566;2023-06-10T02:01:46;8.70;;;6.82;;
37409;SDS011;23275;48.914;12.566;2023-06-10T02:04:12;8.65;;;6.72;;
37409;SDS011;23275;48.914;12.566;2023-06-10T02:06:37;7.75;;;5.95;;
37409;SDS011;23275;48.914;12.566;2023-06-10T02:09:03;7.95;;;5.90;;
37409;SDS011;23275;48.914;12.566;2023-06-10T02:11:28;8.07;;;6.38;;
37409;SDS011;23275;48.914;12.566;2023-06-10T02:13:54;7.90;;;6.13;;
37409;SDS011;23275;48.914;12.566;2023-06-10T02:16:20;9.18;;;7.00;;
37409;SDS011;23275;48.914;12.566;2023-06-10T02:18:46;10.25;;;6.68;;
37409;SDS011;23275;48.914;12.566;2023-06-10T02:21:12;7.85;;;6.60;;
37409;SDS011;23275;48.914;12.566;2023-06-10T02:23:37;8.48;;;6.88;;
37409;SDS011;23275;48.914;12.566;2023-06-10T02:26:03;11.18;;;8.02;;
37409;SDS011;23275;48.914;12.566;2023-06-10T02:28:29;9.05;;;7.38;;
37409;SDS011;23275;48.914;12.566;2023-06-10T02:30:54;8.52;;;7.40;;
37409;SDS011;23275;48.914;12.566;2023-06-10T02:33:22;9.98;;;7.97;;
37409;SDS011;23275;48.914;12.566;2023-06-10T02:35:48;12.45;;;7.70;;
37409;SDS011;23275;48.914;12.566;2023-06-10T02:38:13;8.10;;;6.32;;
37409;SDS011;23275;48.914;12.566;2023-06-10T02:40:39;8.48;;;6.50;;
37409;SDS011;23275;48.914;12.566;2023-06-10T02:43:04;7.25;;;5.60;;
37409;SDS011;23275;48.914;12.566;2023-06-10T02:45:30;9.55;;;6.75;;
37409;SDS011;23275;48.914;12.566;2023-06-10T02:47:56;10.00;;;7.40;;
37409;SDS011;23275;48.914;12.566;2023-06-10T02:50:21;12.48;;;7.35;;
37409;SDS011;23275;48.914;12.566;2023-06-10T02:52:47;8.70;;;7.70;;
37409;SDS011;23275;48.914;12.566;2023-06-10T02:55:13;27.05;;;19.15;;
37409;SDS011;23275;48.914;12.566;2023-06-10T02:57:39;18.02;;;13.20;;
37409;SDS011;23275;48.914;12.566;2023-06-10T03:00:05;11.88;;;8.80;;
37409;SDS011;23275;48.914;12.566;2023-06-10T03:02:36;9.57;;;5.38;;
37409;SDS011;23275;48.914;12.566;2023-06-10T03:05:03;8.55;;;5.65;;
37409;SDS011;23275;48.914;12.566;2023-06-10T03:07:30;11.10;;;7.00;;
37409;SDS011;23275;48.914;12.566;2023-06-10T03:09:56;8.95;;;6.40;;
37409;SDS011;23275;48.914;12.566;2023-06-10T03:12:22;10.23;;;7.88;;
37409;SDS011;23275;48.914;12.566;2023-06-10T03:14:47;12.10;;;7.47;;
37409;SDS011;23275;48.914;12.566;2023-06-10T03:17:13;9.68;;;7.35;;
37409;SDS011;23275;48.914;12.566;2023-06-10T03:19:38;9.27;;;7.63;;
37409;SDS011;23275;48.914;12.566;2023-06-10T03:22:08;9.70;;;7.35;;
37409;SDS011;23275;48.914;12.566;2023-06-10T03:24:37;10.40;;;8.07;;
37409;SDS011;23275;48.914;12.566;2023-06-10T03:27:06;8.90;;;6.38;;
37409;SDS011;23275;48.914;12.566;2023-06-10T03:29:32;8.43;;;6.63;;
37409;SDS011;23275;48.914;12.566;2023-06-10T03:31:58;8.93;;;6.90;;
37409;SDS011;23275;48.914;12.566;2023-06-10T03:34:23;8.82;;;7.50;;
37409;SDS011;23275;48.914;12.566;2023-06-10T03:36:49;8.80;;;7.50;;
37409;SDS011;23275;48.914;12.566;2023-06-10T03:39:15;8.40;;;7.20;;
37409;SDS011;23275;48.914;12.566;2023-06-10T03:41:41;9.52;;;7.18;;
37409;SDS011;23275;48.914;12.566;2023-06-10T03:44:06;9.65;;;7.45;;
37409;SDS011;23275;48.914;12.566;2023-06-10T03:46:32;9.40;;;6.95;;
37409;SDS011;23275;48.914;12.566;2023-06-10T03:48:57;10.88;;;6.53;;
37409;SDS011;23275;48.914;12.566;2023-06-10T03:51:25;9.00;;;6.03;;
37409;SDS011;23275;48.914;12.566;2023-06-10T03:53:51;8.60;;;6.97;;
37409;SDS011;23275;48.914;12.566;2023-06-10T03:56:17;8.93;;;6.55;;
37409;SDS011;23275;48.914;12.566;2023-06-10T03:58:42;9.20;;;6.75;;
37409;SDS011;23275;48.914;12.566;2023-06-10T04:01:08;10.23;;;8.98;;
37409;SDS011;23275;48.914;12.566;2023-06-10T04:03:34;10.70;;;9.13;;
37409;SDS011;23275;48.914;12.566;2023-06-10T04:05:59;12.40;;;8.27;;
37409;SDS011;23275;48.914;12.566;2023-06-10T04:08:25;9.82;;;8.27;;
37409;SDS011;23275;48.914;12.566;2023-06-10T04:10:50;11.63;;;10.13;;
37409;SDS011;23275;48.914;12.566;2023-06-10T04:13:16;11.00;;;9.13;;
37409;SDS011;23275;48.914;12.566;2023-06-10T04:15:42;10.43;;;8.65;;
37409;SDS011;23275;48.914;12.566;2023-06-10T04:18:07;9.32;;;8.32;;
37409;SDS011;23275;48.914;12.566;2023-06-10T04:20:33;10.30;;;7.57;;
37409;SDS011;23275;48.914;12.566;2023-06-10T04:22:59;9.20;;;8.20;;
37409;SDS011;23275;48.914;12.566;2023-06-10T04:25:24;9.02;;;8.07;;
37409;SDS011;23275;48.914;12.566;2023-06-10T04:27:51;10.55;;;8.82;;
37409;SDS011;23275;48.914;12.566;2023-06-10T04:30:16;9.48;;;7.93;;
37409;SDS011;23275;48.914;12.566;2023-06-10T04:32:43;11.30;;;9.00;;
37409;SDS011;23275;48.914;12.566;2023-06-10T04:35:11;10.77;;;7.97;;
37409;SDS011;23275;48.914;12.566;2023-06-10T04:37:37;11.50;;;8.88;;
37409;SDS011;23275;48.914;12.566;2023-06-10T04:40:03;10.93;;;8.93;;
37409;SDS011;23275;48.914;12.566;2023-06-10T04:42:29;10.00;;;8.63;;
37409;SDS011;23275;48.914;12.566;2023-06-10T04:44:55;9.95;;;8.68;;
37409;SDS011;23275;48.914;12.566;2023-06-10T04:47:20;10.57;;;7.93;;
37409;SDS011;23275;48.914;12.566;2023-06-10T04:49:46;8.57;;;7.53;;
37409;SDS011;23275;48.914;12.566;2023-06-10T04:52:12;8.85;;;7.20;;
37409;SDS011;23275;48.914;12.566;2023-06-10T04:54:39;10.02;;;8.25;;
37409;SDS011;23275;48.914;12.566;2023-06-10T04:57:04;10.82;;;8.50;;
37409;SDS011;23275;48.914;12.566;2023-06-10T04:59:32;9.38;;;8.38;;
37409;SDS011;23275;48.914;12.566;2023-06-10T05:01:58;9.55;;;7.80;;
37409;SDS011;23275;48.914;12.566;2023-06-10T05:04:24;9.85;;;7.60;;
37409;SDS011;23275;48.914;12.566;2023-06-10T05:06:49;13.10;;;7.60;;
37409;SDS011;23275;48.914;12.566;2023-06-10T05:09:15;8.38;;;7.20;;
37409;SDS011;23275;48.914;12.566;2023-06-10T05:11:40;8.82;;;7.07;;
37409;SDS011;23275;48.914;12.566;2023-06-10T05:14:06;9.68;;;7.60;;
37409;SDS011;23275;48.914;12.566;2023-06-10T05:16:32;10.32;;;6.70;;
37409;SDS011;23275;48.914;12.566;2023-06-10T05:18:57;9.40;;;7.47;;
37409;SDS011;23275;48.914;12.566;2023-06-10T05:21:23;10.27;;;7.65;;
37409;SDS011;23275;48.914;12.566;2023-06-10T05:23:48;10.32;;;8.00;;
37409;SDS011;23275;48.914;12.566;2023-06-10T05:26:15;9.90;;;8.27;;
37409;SDS011;23275;48.914;12.566;2023-06-10T05:28:41;10.07;;;7.47;;
37409;SDS011;23275;48.914;12.566;2023-06-10T05:31:06;9.68;;;8.68;;
37409;SDS011;23275;48.914;12.566;2023-06-10T05:33:32;11.10;;;8.00;;
37409;SDS011;23275;48.914;12.566;2023-06-10T05:35:57;8.95;;;7.95;;
37409;SDS011;23275;48.914;12.566;2023-06-10T05:38:23;11.27;;;8.48;;
37409;SDS011;23275;48.914;12.566;2023-06-10T05:40:48;12.60;;;9.65;;
37409;SDS011;23275;48.914;12.566;2023-06-10T05:43:14;9.75;;;8.05;;
37409;SDS011;23275;48.914;12.566;2023-06-10T05:45:41;10.82;;;7.55;;
37409;SDS011;23275;48.914;12.566;2023-06-10T05:48:07;8.93;;;7.97;;
37409;SDS011;23275;48.914;12.566;2023-06-10T05:50:33;8.95;;;7.97;;
37409;SDS011;23275;48.914;12.566;2023-06-10T05:53:03;9.23;;;7.55;;
37409;SDS011;23275;48.914;12.566;2023-06-10T05:55:31;9.75;;;7.68;;
37409;SDS011;23275;48.914;12.566;2023-06-10T05:58:00;10.70;;;6.75;;
37409;SDS011;23275;48.914;12.566;2023-06-10T06:00:26;7.78;;;6.93;;
37409;SDS011;23275;48.914;12.566;2023-06-10T06:02:52;9.15;;;5.82;;
37409;SDS011;23275;48.914;12.566;2023-06-10T06:05:19;10.63;;;7.05;;
37409;SDS011;23275;48.914;12.566;2023-06-10T06:07:44;8.40;;;6.60;;
37409;SDS011;23275;48.914;12.566;2023-06-10T06:10:10;8.35;;;6.93;;
37409;SDS011;23275;48.914;12.566;2023-06-10T06:12:36;8.38;;;6.13;;
37409;SDS011;23275;48.914;12.566;2023-06-10T06:15:01;7.70;;;5.82;;
37409;SDS011;23275;48.914;12.566;2023-06-10T06:17:27;7.57;;;4.93;;
37409;SDS011;23275;48.914;12.566;2023-06-10T06:19:52;6.10;;;4.90;;
37409;SDS011;23275;48.914;12.566;2023-06-10T06:22:18;5.43;;;4.43;;
37409;SDS011;23275;48.914;12.566;2023-06-10T06:24:47;5.80;;;4.75;;
37409;SDS011;23275;48.914;12.566;2023-06-10T06:27:12;5.60;;;4.85;;
37409;SDS011;23275;48.914;12.566;2023-06-10T06:29:38;5.70;;;4.68;;
37409;SDS011;23275;48.914;12.566;2023-06-10T06:32:03;7.10;;;4.68;;
37409;SDS011;23275;48.914;12.566;2023-06-10T06:34:29;7.72;;;5.18;;
37409;SDS011;23275;48.914;12.566;2023-06-10T06:36:55;5.82;;;4.85;;
37409;SDS011;23275;48.914;12.566;2023-06-10T06:39:20;5.93;;;4.97;;
37409;SDS011;23275;48.914;12.566;2023-06-10T06:41:46;8.77;;;5.15;;
37409;SDS011;23275;48.914;12.566;2023-06-10T06:44:11;5.80;;;4.78;;
37409;SDS011;23275;48.914;12.566;2023-06-10T06:46:37;7.35;;;4.50;;
37409;SDS011;23275;48.914;12.566;2023-06-10T06:49:02;7.30;;;4.32;;
37409;SDS011;23275;48.914;12.566;2023-06-10T06:51:28;6.50;;;4.65;;
37409;SDS011;23275;48.914;12.566;2023-06-10T06:53:53;6.43;;;5.07;;
37409;SDS011;23275;48.914;12.566;2023-06-10T06:56:21;6.65;;;5.10;;
37409;SDS011;23275;48.914;12.566;2023-06-10T06:58:47;6.80;;;4.90;;
37409;SDS011;23275;48.914;12.566;2023-06-10T07:01:13;5.38;;;4.50;;
37409;SDS011;23275;48.914;12.566;2023-06-10T07:03:38;6.88;;;5.70;;
37409;SDS011;23275;48.914;12.566;2023-06-10T07:06:04;6.07;;;4.88;;
37409;SDS011;23275;48.914;12.566;2023-06-10T07:08:30;5.93;;;4.90;;
37409;SDS011;23275;48.914;12.566;2023-06-10T07:10:55;6.65;;;5.53;;
37409;SDS011;23275;48.914;12.566;2023-06-10T07:13:21;7.15;;;5.50;;
37409;SDS011;23275;48.914;12.566;2023-06-10T07:15:46;6.68;;;4.60;;
37409;SDS011;23275;48.914;12.566;2023-06-10T07:18:12;6.28;;;5.43;;
37409;SDS011;23275;48.914;12.566;2023-06-10T07:20:39;7.35;;;5.13;;
37409;SDS011;23275;48.914;12.566;2023-06-10T07:23:06;10.05;;;7.63;;
37409;SDS011;23275;48.914;12.566;2023-06-10T07:25:31;7.20;;;5.57;;
37409;SDS011;23275;48.914;12.566;2023-06-10T07:27:58;8.65;;;5.90;;
37409;SDS011;23275;48.914;12.566;2023-06-10T07:30:24;6.40;;;5.28;;
37409;SDS011;23275;48.914;12.566;2023-06-10T07:32:50;8.57;;;5.40;;
37409;SDS011;23275;48.914;12.566;2023-06-10T07:35:16;5.95;;;5.03;;
37409;SDS011;23275;48.914;12.566;2023-06-10T07:37:42;5.80;;;4.78;;
37409;SDS011;23275;48.914;12.566;2023-06-10T07:40:08;7.40;;;4.85;;
37409;SDS011;23275;48.914;12.566;2023-06-10T07:42:34;4.93;;;4.43;;
37409;SDS011;23275;48.914;12.566;2023-06-10T07:45:04;6.85;;;5.10;;
37409;SDS011;23275;48.914;12.566;2023-06-10T07:47:30;6.10;;;5.43;;
37409;SDS011;23275;48.914;12.566;2023-06-10T07:49:58;6.25;;;5.32;;
37409;SDS011;23275;48.914;12.566;2023-06-10T07:52:24;6.22;;;5.07;;
37409;SDS011;23275;48.914;12.566;2023-06-10T07:54:50;6.90;;;4.70;;
37409;SDS011;23275;48.914;12.566;2023-06-10T07:57:17;5.15;;;4.50;;
37409;SDS011;23275;48.914;12.566;2023-06-10T07:59:44;6.18;;;4.38;;
37409;SDS011;23275;48.914;12.566;2023-06-10T08:02:09;5.43;;;4.60;;
37409;SDS011;23275;48.914;12.566;2023-06-10T08:04:35;5.03;;;4.13;;
37409;SDS011;23275;48.914;12.566;2023-06-10T08:07:01;5.35;;;4.13;;
37409;SDS011;23275;48.914;12.566;2023-06-10T08:09:27;6.28;;;4.47;;
37409;SDS011;23275;48.914;12.566;2023-06-10T08:11:53;6.15;;;4.55;;
37409;SDS011;23275;48.914;12.566;2023-06-10T08:14:18;6.75;;;4.82;;
37409;SDS011;23275;48.914;12.566;2023-06-10T08:16:44;6.90;;;4.63;;
37409;SDS011;23275;48.914;12.566;2023-06-10T08:19:10;6.43;;;4.88;;
37409;SDS011;23275;48.914;12.566;2023-06-10T08:21:36;5.80;;;4.75;;
37409;SDS011;23275;48.914;12.566;2023-06-10T08:24:02;5.93;;;4.65;;
37409;SDS011;23275;48.914;12.566;2023-06-10T08:26:28;5.28;;;4.50;;
37409;SDS011;23275;48.914;12.566;2023-06-10T08:28:54;5.50;;;4.40;;
37409;SDS011;23275;48.914;12.566;2023-06-10T08:31:20;6.00;;;4.35;;
37409;SDS011;23275;48.914;12.566;2023-06-10T08:33:46;6.03;;;5.20;;
37409;SDS011;23275;48.914;12.566;2023-06-10T08:36:11;6.07;;;5.03;;
37409;SDS011;23275;48.914;12.566;2023-06-10T08:38:37;7.82;;;5.30;;
37409;SDS011;23275;48.914;12.566;2023-06-10T08:41:04;5.78;;;5.05;;
37409;SDS011;23275;48.914;12.566;2023-06-10T08:43:37;5.90;;;4.63;;
37409;SDS011;23275;48.914;12.566;2023-06-10T08:46:09;5.75;;;4.57;;
37409;SDS011;23275;48.914;12.566;2023-06-10T08:48:39;6.25;;;5.22;;
37409;SDS011;23275;48.914;12.566;2023-06-10T08:51:09;5.50;;;4.60;;
37409;SDS011;23275;48.914;12.566;2023-06-10T08:53:36;5.40;;;4.53;;
37409;SDS011;23275;48.914;12.566;2023-06-10T08:56:07;7.07;;;4.82;;
37409;SDS011;23275;48.914;12.566;2023-06-10T08:58:35;5.75;;;5.13;;
37409;SDS011;23275;48.914;12.566;2023-06-10T09:01:06;4.95;;;4.20;;
37409;SDS011;23275;48.914;12.566;2023-06-10T09:03:33;5.07;;;4.00;;
37409;SDS011;23275;48.914;12.566;2023-06-10T09:06:03;5.45;;;4.57;;
37409;SDS011;23275;48.914;12.566;2023-06-10T09:08:30;5.50;;;4.32;;
37409;SDS011;23275;48.914;12.566;2023-06-10T09:10:56;5.85;;;4.82;;
37409;SDS011;23275;48.914;12.566;2023-06-10T09:13:22;6.82;;;4.60;;
37409;SDS011;23275;48.914;12.566;2023-06-10T09:15:48;5.57;;;4.82;;
37409;SDS011;23275;48.914;12.566;2023-06-10T09:18:14;5.63;;;4.55;;
37409;SDS011;23275;48.914;12.566;2023-06-10T09:20:41;5.20;;;4.25;;
37409;SDS011;23275;48.914;12.566;2023-06-10T09:23:08;5.45;;;4.53;;
37409;SDS011;23275;48.914;12.566;2023-06-10T09:25:38;7.00;;;4.38;;
37409;SDS011;23275;48.914;12.566;2023-06-10T09:28:04;6.97;;;4.43;;
37409;SDS011;23275;48.914;12.566;2023-06-10T09:30:37;5.35;;;4.78;;
37409;SDS011;23275;48.914;12.566;2023-06-10T09:33:03;4.78;;;4.30;;
37409;SDS011;23275;48.914;12.566;2023-06-10T09:35:35;6.10;;;4.68;;
37409;SDS011;23275;48.914;12.566;2023-06-10T09:38:01;6.13;;;4.50;;
37409;SDS011;23275;48.914;12.566;2023-06-10T09:40:30;5.30;;;4.55;;
37409;SDS011;23275;48.914;12.566;2023-06-10T09:42:57;4.63;;;4.13;;
37409;SDS011;23275;48.914;12.566;2023-06-10T09:45:27;5.07;;;4.50;;
37409;SDS011;23275;48.914;12.566;2023-06-10T09:47:58;5.78;;;4.32;;
37409;SDS011;23275;48.914;12.566;2023-06-10T09:50:24;5.03;;;4.53;;
37409;SDS011;23275;48.914;12.566;2023-06-10T09:52:50;5.50;;;4.47;;
37409;SDS011;23275;48.914;12.566;2023-06-10T09:55:17;6.65;;;4.00;;
37409;SDS011;23275;48.914;12.566;2023-06-10T09:57:43;5.43;;;3.80;;
37409;SDS011;23275;48.914;12.566;2023-06-10T10:00:12;4.85;;;4.35;;
37409;SDS011;23275;48.914;12.566;2023-06-10T10:02:49;5.32;;;3.75;;
37409;SDS011;23275;48.914;12.566;2023-06-10T10:05:16;6.18;;;3.70;;
37409;SDS011;23275;48.914;12.566;2023-06-10T10:10:12;5.95;;;3.85;;
37409;SDS011;23275;48.914;12.566;2023-06-10T10:12:39;3.95;;;3.38;;
37409;SDS011;23275;48.914;12.566;2023-06-10T10:15:09;4.53;;;3.65;;
37409;SDS011;23275;48.914;12.566;2023-06-10T10:17:44;3.90;;;3.50;;
37409;SDS011;23275;48.914;12.566;2023-06-10T10:20:18;3.95;;;3.55;;
37409;SDS011;23275;48.914;12.566;2023-06-10T10:22:47;5.78;;;3.75;;
37409;SDS011;23275;48.914;12.566;2023-06-10T10:25:22;4.57;;;3.95;;
37409;SDS011;23275;48.914;12.566;2023-06-10T10:30:17;6.72;;;4.15;;
37409;SDS011;23275;48.914;12.566;2023-06-10T10:35:17;4.20;;;3.70;;
37409;SDS011;23275;48.914;12.566;2023-06-10T10:37:50;4.72;;;4.22;;
37409;SDS011;23275;48.914;12.566;2023-06-10T10:40:17;5.43;;;4.45;;
37409;SDS011;23275;48.914;12.566;2023-06-10T10:42:44;5.18;;;4.32;;
37409;SDS011;23275;48.914;12.566;2023-06-10T10:45:10;6.65;;;4.38;;
37409;SDS011;23275;48.914;12.566;2023-06-10T10:47:36;6.60;;;4.68;;
37409;SDS011;23275;48.914;12.566;2023-06-10T10:50:12;4.90;;;4.25;;
37409;SDS011;23275;48.914;12.566;2023-06-10T10:55:21;5.53;;;4.80;;
37409;SDS011;23275;48.914;12.566;2023-06-10T10:57:57;7.90;;;4.75;;
37409;SDS011;23275;48.914;12.566;2023-06-10T11:00:33;6.00;;;4.90;;
37409;SDS011;23275;48.914;12.566;2023-06-10T11:03:08;5.57;;;4.80;;
37409;SDS011;23275;48.914;12.566;2023-06-10T11:08:09;6.07;;;5.25;;
37409;SDS011;23275;48.914;12.566;2023-06-10T11:10:36;5.22;;;4.43;;
37409;SDS011;23275;48.914;12.566;2023-06-10T11:13:06;5.60;;;4.88;;
37409;SDS011;23275;48.914;12.566;2023-06-10T11:15:33;5.47;;;4.82;;
37409;SDS011;23275;48.914;12.566;2023-06-10T11:20:50;8.25;;;5.18;;
37409;SDS011;23275;48.914;12.566;2023-06-10T11:33:58;5.50;;;4.90;;
37409;SDS011;23275;48.914;12.566;2023-06-10T11:36:26;6.18;;;4.82;;
37409;SDS011;23275;48.914;12.566;2023-06-10T11:38:56;5.70;;;4.95;;
37409;SDS011;23275;48.914;12.566;2023-06-10T11:41:23;5.70;;;4.90;;
37409;SDS011;23275;48.914;12.566;2023-06-10T11:43:53;6.78;;;4.82;;
37409;SDS011;23275;48.914;12.566;2023-06-10T11:46:21;8.52;;;4.70;;
37409;SDS011;23275;48.914;12.566;2023-06-10T11:48:57;5.40;;;4.90;;
37409;SDS011;23275;48.914;12.566;2023-06-10T11:51:27;5.07;;;4.50;;
37409;SDS011;23275;48.914;12.566;2023-06-10T11:54:00;4.75;;;3.92;;
37409;SDS011;23275;48.914;12.566;2023-06-10T11:56:26;4.72;;;4.20;;
37409;SDS011;23275;48.914;12.566;2023-06-10T11:58:54;4.93;;;4.32;;
37409;SDS011;23275;48.914;12.566;2023-06-10T12:01:22;4.87;;;4.23;;
37409;SDS011;23275;48.914;12.566;2023-06-10T12:03:56;4.55;;;3.95;;
37409;SDS011;23275;48.914;12.566;2023-06-10T12:06:38;4.43;;;3.90;;
37409;SDS011;23275;48.914;12.566;2023-06-10T12:09:05;6.93;;;4.05;;
37409;SDS011;23275;48.914;12.566;2023-06-10T12:11:40;5.03;;;3.67;;
37409;SDS011;23275;48.914;12.566;2023-06-10T12:14:08;4.65;;;4.05;;
37409;SDS011;23275;48.914;12.566;2023-06-10T12:16:34;4.30;;;3.78;;
37409;SDS011;23275;48.914;12.566;2023-06-10T12:19:03;5.07;;;4.00;;
37409;SDS011;23275;48.914;12.566;2023-06-10T12:21:31;4.85;;;4.13;;
37409;SDS011;23275;48.914;12.566;2023-06-10T12:24:05;5.20;;;4.13;;
37409;SDS011;23275;48.914;12.566;2023-06-10T12:26:41;4.63;;;3.90;;
37409;SDS011;23275;48.914;12.566;2023-06-10T12:29:15;6.28;;;4.25;;
37409;SDS011;23275;48.914;12.566;2023-06-10T12:31:56;6.80;;;3.97;;
37409;SDS011;23275;48.914;12.566;2023-06-10T12:34:34;5.03;;;4.13;;
37409;SDS011;23275;48.914;12.566;2023-06-10T12:37:01;4.15;;;3.08;;
37409;SDS011;23275;48.914;12.566;2023-06-10T12:39:29;4.43;;;3.33;;
37409;SDS011;23275;48.914;12.566;2023-06-10T12:41:58;4.33;;;3.50;;
37409;SDS011;23275;48.914;12.566;2023-06-10T12:44:34;4.95;;;3.63;;
37409;SDS011;23275;48.914;12.566;2023-06-10T12:47:06;3.67;;;3.08;;
37409;SDS011;23275;48.914;12.566;2023-06-10T12:49:33;4.53;;;3.63;;
37409;SDS011;23275;48.914;12.566;2023-06-10T12:52:00;5.55;;;3.90;;
37409;SDS011;23275;48.914;12.566;2023-06-10T12:54:26;4.05;;;3.65;;
37409;SDS011;23275;48.914;12.566;2023-06-10T12:56:51;4.03;;;3.20;;
37409;SDS011;23275;48.914;12.566;2023-06-10T12:59:17;4.50;;;3.30;;
37409;SDS011;23275;48.914;12.566;2023-06-10T13:01:44;4.25;;;3.83;;
37409;SDS011;23275;48.914;12.566;2023-06-10T13:04:15;4.20;;;3.47;;
37409;SDS011;23275;48.914;12.566;2023-06-10T13:06:42;4.57;;;3.63;;
37409;SDS011;23275;48.914;12.566;2023-06-10T13:09:07;4.28;;;3.80;;
37409;SDS011;23275;48.914;12.566;2023-06-10T13:11:33;7.00;;;3.72;;
37409;SDS011;23275;48.914;12.566;2023-06-10T13:13:58;3.83;;;3.05;;
37409;SDS011;23275;48.914;12.566;2023-06-10T13:16:24;5.35;;;4.20;;
37409;SDS011;23275;48.914;12.566;2023-06-10T13:18:50;4.57;;;3.97;;
37409;SDS011;23275;48.914;12.566;2023-06-10T13:21:17;4.72;;;3.55;;
37409;SDS011;23275;48.914;12.566;2023-06-10T13:23:44;5.00;;;4.18;;
37409;SDS011;23275;48.914;12.566;2023-06-10T13:26:12;6.73;;;4.07;;
37409;SDS011;23275;48.914;12.566;2023-06-10T13:28:38;6.35;;;4.45;;
37409;SDS011;23275;48.914;12.566;2023-06-10T13:31:04;6.72;;;5.63;;
37409;SDS011;23275;48.914;12.566;2023-06-10T13:33:29;6.03;;;5.22;;
37409;SDS011;23275;48.914;12.566;2023-06-10T13:35:55;6.10;;;4.95;;
37409;SDS011;23275;48.914;12.566;2023-06-10T13:38:20;8.27;;;5.30;;
37409;SDS011;23275;48.914;12.566;2023-06-10T13:40:46;5.93;;;5.03;;
37409;SDS011;23275;48.914;12.566;2023-06-10T13:43:11;5.10;;;4.43;;
37409;SDS011;23275;48.914;12.566;2023-06-10T13:45:38;5.63;;;4.40;;
37409;SDS011;23275;48.914;12.566;2023-06-10T13:48:04;6.10;;;4.15;;
37409;SDS011;23275;48.914;12.566;2023-06-10T13:50:30;4.78;;;4.28;;
37409;SDS011;23275;48.914;12.566;2023-06-10T13:52:56;4.78;;;4.03;;
37409;SDS011;23275;48.914;12.566;2023-06-10T13:55:22;6.72;;;5.20;;
37409;SDS011;23275;48.914;12.566;2023-06-10T13:57:49;8.40;;;5.50;;
37409;SDS011;23275;48.914;12.566;2023-06-10T14:00:15;7.28;;;5.22;;
37409;SDS011;23275;48.914;12.566;2023-06-10T14:02:41;7.10;;;5.43;;
37409;SDS011;23275;48.914;12.566;2023-06-10T14:05:07;5.57;;;4.97;;
37409;SDS011;23275;48.914;12.566;2023-06-10T14:07:33;7.43;;;5.20;;
37409;SDS011;23275;48.914;12.566;2023-06-10T14:09:59;7.38;;;5.22;;
37409;SDS011;23275;48.914;12.566;2023-06-10T14:12:25;6.55;;;5.35;;
37409;SDS011;23275;48.914;12.566;2023-06-10T14:14:50;6.80;;;5.78;;
37409;SDS011;23275;48.914;12.566;2023-06-10T14:17:16;7.35;;;6.25;;
37409;SDS011;23275;48.914;12.566;2023-06-10T14:19:42;9.50;;;6.20;;
37409;SDS011;23275;48.914;12.566;2023-06-10T14:22:07;7.93;;;6.32;;
37409;SDS011;23275;48.914;12.566;2023-06-10T14:24:33;6.85;;;5.90;;
37409;SDS011;23275;48.914;12.566;2023-06-10T14:27:00;7.28;;;6.25;;
37409;SDS011;23275;48.914;12.566;2023-06-10T14:29:25;8.65;;;6.30;;
37409;SDS011;23275;48.914;12.566;2023-06-10T14:31:53;7.57;;;6.15;;
37409;SDS011;23275;48.914;12.566;2023-06-10T14:34:22;8.95;;;6.72;;
37409;SDS011;23275;48.914;12.566;2023-06-10T14:36:53;6.57;;;5.97;;
37409;SDS011;23275;48.914;12.566;2023-06-10T14:39:19;7.05;;;6.25;;
37409;SDS011;23275;48.914;12.566;2023-06-10T14:41:44;7.38;;;6.10;;
37409;SDS011;23275;48.914;12.566;2023-06-10T14:44:10;7.30;;;5.60;;
37409;SDS011;23275;48.914;12.566;2023-06-10T14:46:35;7.18;;;6.22;;
37409;SDS011;23275;48.914;12.566;2023-06-10T14:49:01;6.43;;;5.70;;
37409;SDS011;23275;48.914;12.566;2023-06-10T14:51:27;6.20;;;5.57;;
37409;SDS011;23275;48.914;12.566;2023-06-10T14:53:53;8.50;;;6.30;;
37409;SDS011;23275;48.914;12.566;2023-06-10T14:56:18;6.63;;;5.93;;
37409;SDS011;23275;48.914;12.566;2023-06-10T14:58:44;8.25;;;6.63;;
37409;SDS011;23275;48.914;12.566;2023-06-10T15:01:09;7.82;;;6.70;;
37409;SDS011;23275;48.914;12.566;2023-06-10T15:03:35;6.82;;;5.70;;